Ryland, Alabama
Current Conditions -  °F | °C
As of 12:35 PM on Saturday 20 Dec 2014 (Local Time) from KMDQ Reporting Station
Clear Clear  
Wind Chill: 48°   Ceiling: Unl
Heat Index: 48°   Visibility: 10mi
Dew Point: 27°   Wind: 3mph
Humidity: 43%   Direction: 10°N
Pressure: 30.2"   Gusts: NA
Location:  34.77°N, 86.48°W
Report Text: KMDQ 201835Z AUTO 01003KT 10SM CLR 09/M03 A3020 RMK AO2
Loading
Personal Weather Stations






























Interactive Weather Map New forecast layout! Learn more

10-Day Weather Forecast

Advertisements
Track Severe Weather on mobile